Linthicum, Maryland
Current Conditions -  °F | °C
As of 4:54 AM on Monday 22 Dec 2014 (Local Time) from KBWI Reporting Station
Broken Clouds Broken Clouds  
Wind Chill: 28°   Ceiling: 25000
Heat Index: 28°   Visibility: 8mi
Dew Point: 22°   Wind: 3mph
Humidity: 78%   Direction: 60°ENE
Pressure: 30.29"   Gusts: NA
Location:  39.2087°N, 76.6692°W
Report Text: KBWI 220954Z 06003KT 8SM BKN250 M02/M06 A3029 RMK AO2 SLP257 T10221056
Loading
Personal Weather Stations






























Interactive Weather Map New forecast layout! Learn more

10-Day Weather Forecast

Advertisements
Track Severe Weather on mobile